createdAt,value
2023-02-27T00:02:58.600Z,68.88
2023-02-27T00:08:01.612Z,68.76
2023-02-27T00:13:04.608Z,68.03
2023-02-27T00:18:08.000Z,67.64
2023-02-27T00:23:11.116Z,67.85
2023-02-27T00:28:13.531Z,67.46
2023-02-27T00:33:16.901Z,67.95
2023-02-27T00:38:19.210Z,67.42
2023-02-27T00:43:21.716Z,68.15
2023-02-27T00:48:25.983Z,67.74
2023-02-27T00:53:28.990Z,66.38
2023-02-27T00:58:32.329Z,67.32
2023-02-27T01:03:36.450Z,67.77
2023-02-27T01:08:39.344Z,67.97
2023-02-27T01:13:41.981Z,67.09
2023-02-27T01:18:44.371Z,67.10
2023-02-27T01:23:47.418Z,66.48
2023-02-27T01:28:50.239Z,66.50
2023-02-27T01:33:53.257Z,66.01
2023-02-27T01:38:56.109Z,65.91
2023-02-27T01:44:08.447Z,66.11
2023-02-27T01:49:16.804Z,65.31
2023-02-27T01:54:22.786Z,64.89
2023-02-27T01:59:26.598Z,64.95
2023-02-27T02:04:36.363Z,64.54
2023-02-27T02:10:00.368Z,65.16
2023-02-27T02:15:07.483Z,64.51
2023-02-27T02:20:43.013Z,65.15
2023-02-27T02:26:04.538Z,64.52
2023-02-27T02:31:32.168Z,65.41
2023-02-27T02:37:05.771Z,65.35
2023-02-27T02:42:21.689Z,64.61
2023-02-27T02:47:57.466Z,64.32
2023-02-27T02:52:59.682Z,65.31
2023-02-27T02:58:29.776Z,63.85
2023-02-27T03:03:41.539Z,64.17
2023-02-27T03:08:52.709Z,64.53
2023-02-27T03:14:11.114Z,64.78
2023-02-27T03:19:16.557Z,64.33
2023-02-27T03:24:26.404Z,63.28
2023-02-27T03:29:52.763Z,63.43
2023-02-27T03:34:56.796Z,63.67
2023-02-27T03:40:23.213Z,63.95
2023-02-27T03:45:34.115Z,63.42
2023-02-27T03:50:38.648Z,62.04
2023-02-27T03:55:45.519Z,61.68
2023-02-27T04:00:48.617Z,62.49
2023-02-27T04:05:52.707Z,61.36
2023-02-27T04:11:18.694Z,61.39
2023-02-27T04:16:36.462Z,61.29
2023-02-27T04:21:38.742Z,61.56
2023-02-27T04:26:51.981Z,62.12
2023-02-27T04:32:14.121Z,61.81
2023-02-27T04:37:26.469Z,60.95
2023-02-27T04:42:35.817Z,60.67
2023-02-27T04:47:47.968Z,59.83
2023-02-27T04:53:00.249Z,59.65
2023-02-27T04:58:09.488Z,59.93
2023-02-27T05:03:18.701Z,61.12
2023-02-27T05:08:33.461Z,59.79
2023-02-27T05:13:49.774Z,60.44
2023-02-27T05:18:53.928Z,60.09
2023-02-27T05:24:22.667Z,59.26
2023-02-27T05:29:47.976Z,59.38
2023-02-27T05:35:06.820Z,59.02
2023-02-27T05:40:20.568Z,58.97
2023-02-27T05:45:29.630Z,59.79
2023-02-27T05:50:36.893Z,58.35
2023-02-27T05:55:44.255Z,58.31
2023-02-27T06:00:55.651Z,57.08
2023-02-27T06:06:04.775Z,55.99
2023-02-27T06:11:08.457Z,54.69
2023-02-27T06:16:15.002Z,55.49
2023-02-27T06:21:19.618Z,55.18
2023-02-27T06:26:22.377Z,54.56
2023-02-27T06:31:25.250Z,54.68
2023-02-27T06:36:29.804Z,52.58
2023-02-27T06:41:33.048Z,52.49
2023-02-27T06:46:36.208Z,51.03
2023-02-27T06:51:38.530Z,50.42
2023-02-27T06:56:41.915Z,51.15
2023-02-27T07:01:44.761Z,50.82
2023-02-27T07:07:34.215Z,49.75
2023-02-27T07:12:10.832Z,50.06
2023-02-27T07:17:14.371Z,48.52
2023-02-27T07:22:17.585Z,48.83
2023-02-27T07:27:20.425Z,48.49
2023-02-27T07:32:23.926Z,48.09
2023-02-27T07:37:28.002Z,47.72
2023-02-27T07:42:31.136Z,47.67
2023-02-27T07:47:34.132Z,47.45
2023-02-27T07:52:36.556Z,47.31
2023-02-27T07:57:38.893Z,47.22
2023-02-27T08:02:41.607Z,47.82
2023-02-27T08:07:44.484Z,48.29
2023-02-27T08:12:47.606Z,47.10
2023-02-27T08:17:51.490Z,48.54
2023-02-27T08:22:53.847Z,47.50
2023-02-27T08:27:57.132Z,47.16
2023-02-27T08:33:00.740Z,46.97
2023-02-27T08:38:07.679Z,46.71
2023-02-27T08:43:11.466Z,46.64
2023-02-27T08:48:15.989Z,48.42
2023-02-27T08:53:20.015Z,47.07
2023-02-27T08:58:22.886Z,47.82
2023-02-27T09:03:29.395Z,47.62
2023-02-27T09:08:33.505Z,47.27
2023-02-27T09:13:36.998Z,47.58
2023-02-27T09:18:40.649Z,45.99
2023-02-27T09:23:48.719Z,47.10
2023-02-27T09:28:54.265Z,47.61
2023-02-27T09:33:58.496Z,47.95
2023-02-27T09:39:02.307Z,46.86
2023-02-27T09:44:15.762Z,47.45
2023-02-27T09:49:21.918Z,47.53
2023-02-27T09:54:29.250Z,47.60
2023-02-27T09:59:55.489Z,46.98
2023-02-27T10:05:13.606Z,46.74
2023-02-27T10:10:40.841Z,46.66
2023-02-27T10:15:51.723Z,47.43
2023-02-27T10:21:06.390Z,48.14
2023-02-27T10:26:20.526Z,47.61
2023-02-27T10:31:32.032Z,47.89
2023-02-27T10:36:36.328Z,47.44
2023-02-27T10:41:45.032Z,48.79
2023-02-27T10:46:51.680Z,49.00
2023-02-27T10:52:09.226Z,48.29
2023-02-27T10:57:38.779Z,49.27
2023-02-27T11:03:03.008Z,49.51
2023-02-27T11:08:24.375Z,49.62
2023-02-27T11:13:33.591Z,49.09
2023-02-27T11:18:40.504Z,49.23
2023-02-27T11:24:07.884Z,49.45
2023-02-27T11:29:13.508Z,48.45
2023-02-27T11:34:25.060Z,48.99
2023-02-27T11:39:33.882Z,49.47
2023-02-27T11:44:50.571Z,49.95
2023-02-27T11:49:54.113Z,49.68
2023-02-27T11:55:02.202Z,49.27
2023-02-27T12:00:22.368Z,49.70
2023-02-27T12:05:41.691Z,48.64
2023-02-27T12:11:46.588Z,49.42
2023-02-27T12:17:32.571Z,49.16
2023-02-27T12:22:46.691Z,48.97
2023-02-27T12:27:57.822Z,49.16
2023-02-27T12:38:45.752Z,48.94
2023-02-27T12:44:29.935Z,48.68
2023-02-27T12:49:50.087Z,47.89
2023-02-27T12:55:08.101Z,49.17
2023-02-27T13:05:51.422Z,50.93
2023-02-27T13:11:13.227Z,50.47
2023-02-27T13:16:29.145Z,50.25
2023-02-27T13:21:42.625Z,50.32
2023-02-27T13:27:18.368Z,51.20
2023-02-27T13:32:44.118Z,50.73
2023-02-27T13:38:25.038Z,51.65
2023-02-27T13:43:51.106Z,52.26
2023-02-27T13:49:05.073Z,51.37
2023-02-27T13:54:16.011Z,51.16
2023-02-27T13:59:32.147Z,51.81
2023-02-27T14:05:18.760Z,52.19
2023-02-27T14:10:37.403Z,52.19
2023-02-27T14:15:59.779Z,52.98
2023-02-27T14:22:52.251Z,52.91
2023-02-27T14:27:59.526Z,53.02
2023-02-27T14:34:04.097Z,52.41
2023-02-27T14:39:57.692Z,53.64
2023-02-27T14:45:24.321Z,52.97
2023-02-27T14:51:05.754Z,52.72
2023-02-27T14:56:32.210Z,53.75
2023-02-27T15:01:45.928Z,53.38
2023-02-27T15:07:07.807Z,53.57
2023-02-27T15:12:28.502Z,52.46
2023-02-27T15:18:07.088Z,53.50
2023-02-27T15:23:32.292Z,52.71
2023-02-27T15:28:42.771Z,53.35
2023-02-27T15:34:02.688Z,53.29
2023-02-27T15:39:21.462Z,52.92
2023-02-27T15:44:47.078Z,53.33
2023-02-27T15:50:21.712Z,53.72
2023-02-27T15:55:40.911Z,53.77
2023-02-27T16:00:46.768Z,53.73
2023-02-27T16:06:33.588Z,54.44
2023-02-27T16:11:40.416Z,54.72
2023-02-27T16:17:07.969Z,55.16
2023-02-27T16:22:31.678Z,55.38
2023-02-27T16:28:02.206Z,56.21
2023-02-27T16:33:21.746Z,56.97
2023-02-27T16:38:29.210Z,57.29
2023-02-27T16:43:33.583Z,57.94
2023-02-27T16:48:54.985Z,57.91
2023-02-27T16:55:46.350Z,57.91
2023-02-27T16:59:46.849Z,57.18
2023-02-27T17:04:56.789Z,57.46
2023-02-27T17:10:13.845Z,56.59
2023-02-27T17:15:51.143Z,56.88
2023-02-27T17:21:02.902Z,56.35
2023-02-27T17:26:06.133Z,56.59
2023-02-27T17:31:25.356Z,57.17
2023-02-27T17:36:38.818Z,57.53
2023-02-27T17:41:46.132Z,57.05
2023-02-27T17:46:56.496Z,57.02
2023-02-27T17:52:04.061Z,57.99
2023-02-27T17:57:12.570Z,57.32
2023-02-27T18:02:18.873Z,57.81
2023-02-27T18:07:26.577Z,58.87
2023-02-27T18:12:31.830Z,59.06
2023-02-27T18:17:34.893Z,57.78
2023-02-27T18:22:42.740Z,58.96
2023-02-27T18:27:45.631Z,59.00
2023-02-27T18:32:52.931Z,59.23
2023-02-27T18:43:23.403Z,58.18
2023-02-27T18:48:30.593Z,59.17
2023-02-27T18:53:36.026Z,58.67
2023-02-27T18:58:48.613Z,59.18
2023-02-27T19:04:06.996Z,59.44
2023-02-27T19:09:21.948Z,59.55
2023-02-27T19:14:29.758Z,59.88
2023-02-27T19:19:33.077Z,59.76
2023-02-27T19:24:36.014Z,59.54
2023-02-27T19:29:38.885Z,58.87
2023-02-27T19:34:46.605Z,59.54
2023-02-27T19:39:52.154Z,59.78
2023-02-27T19:44:55.295Z,60.02
2023-02-27T19:50:00.198Z,59.27
2023-02-27T19:55:13.565Z,58.70
2023-02-27T20:00:20.224Z,58.46
2023-02-27T20:05:24.826Z,57.94
2023-02-27T20:10:28.006Z,58.70
2023-02-27T20:15:31.376Z,58.45
2023-02-27T20:20:37.284Z,58.87
2023-02-27T20:25:40.121Z,59.18
2023-02-27T20:30:43.009Z,58.99
2023-02-27T20:35:46.343Z,58.28
2023-02-27T20:40:49.798Z,58.80
2023-02-27T20:45:55.817Z,58.77
2023-02-27T20:51:14.980Z,59.52
2023-02-27T20:56:26.498Z,59.55
2023-02-27T21:01:30.786Z,59.82
2023-02-27T21:06:36.025Z,60.22
2023-02-27T21:11:39.863Z,60.96
2023-02-27T21:16:46.547Z,60.38
2023-02-27T21:21:50.515Z,60.81
2023-02-27T21:26:56.387Z,61.07
2023-02-27T21:32:00.536Z,62.03
2023-02-27T21:37:09.440Z,61.70
2023-02-27T21:42:15.738Z,62.23
2023-02-27T21:47:22.909Z,62.18
2023-02-27T21:52:27.981Z,61.33
2023-02-27T21:57:33.220Z,61.54
2023-02-27T22:02:36.606Z,61.57
2023-02-27T22:07:40.588Z,61.45
2023-02-27T22:12:44.021Z,61.40
2023-02-27T22:17:54.231Z,62.03
2023-02-27T22:22:59.740Z,61.91
2023-02-27T22:28:02.854Z,61.13
2023-02-27T22:33:12.098Z,61.22
2023-02-27T22:38:15.068Z,61.33
2023-02-27T22:43:23.439Z,61.18
2023-02-27T22:48:28.218Z,61.50
2023-02-27T22:53:45.481Z,61.04
2023-02-27T22:58:49.012Z,61.35
2023-02-27T23:04:07.315Z,61.75
2023-02-27T23:09:25.650Z,60.81
2023-02-27T23:14:31.692Z,60.79
2023-02-27T23:19:35.820Z,60.59
2023-02-27T23:24:40.595Z,60.63
2023-02-27T23:29:43.983Z,61.53
2023-02-27T23:34:50.054Z,62.47
2023-02-27T23:39:54.620Z,62.06
2023-02-27T23:45:07.469Z,60.90
2023-02-27T23:50:16.380Z,61.92
2023-02-27T23:55:22.973Z,61.51
